Terminal Aerodrome Forecast
Issued by NWS Charleston, WV

Current Version | Previous Version | Text Only | Print | Product List | Glossary Off
Versions: 1 2 3 4 5 6 7 8 9 10 11 12 13 14 15 16 17 18 19 20 21 22 23 24

000
FTUS41 KRLX 182328
TAFPKB
TAF
KPKB 182328Z 1900/1924 36003KT P6SM BKN080
     FM190300 20010G22KT 4SM -SHRA OVC025
     FM190500 25011G24KT P6SM BKN040
     FM191200 27010G24KT P6SM OVC020
     FM191500 30010G18KT P6SM OVC020=

USA.gov is the U.S. government's official web portal to all federal, state and local government web resources and services.